sensor_id;sensor_type;location;lat;lon;timestamp;pressure;altitude;pressure_sealevel;temperature;humidity
50710;BME280;37033;49.994;21.992;2022-08-19T00:00:13;98963.80;;;19.04;74.38
50710;BME280;37033;49.994;21.992;2022-08-19T00:03:08;98955.30;;;19.00;74.49
50710;BME280;37033;49.994;21.992;2022-08-19T00:05:58;98952.64;;;18.96;74.56
50710;BME280;37033;49.994;21.992;2022-08-19T00:08:48;98952.62;;;18.92;74.62
50710;BME280;37033;49.994;21.992;2022-08-19T00:11:40;98954.59;;;18.89;75.06
50710;BME280;37033;49.994;21.992;2022-08-19T00:14:31;98957.28;;;18.85;75.09
50710;BME280;37033;49.994;21.992;2022-08-19T00:17:22;98955.09;;;18.81;75.16
50710;BME280;37033;49.994;21.992;2022-08-19T00:20:15;98955.61;;;18.75;75.41
50710;BME280;37033;49.994;21.992;2022-08-19T00:23:06;98958.23;;;18.71;75.33
50710;BME280;37033;49.994;21.992;2022-08-19T00:25:57;98957.83;;;18.69;75.73
50710;BME280;37033;49.994;21.992;2022-08-19T00:28:47;98960.05;;;18.65;75.80
50710;BME280;37033;49.994;21.992;2022-08-19T00:31:38;98956.96;;;18.63;75.95
50710;BME280;37033;49.994;21.992;2022-08-19T00:34:29;98951.84;;;18.60;76.18
50710;BME280;37033;49.994;21.992;2022-08-19T00:37:20;98952.61;;;18.57;76.23
50710;BME280;37033;49.994;21.992;2022-08-19T00:40:13;98946.27;;;18.55;76.60
50710;BME280;37033;49.994;21.992;2022-08-19T00:43:09;98942.73;;;18.53;76.82
50710;BME280;37033;49.994;21.992;2022-08-19T00:46:01;98943.46;;;18.53;77.09
50710;BME280;37033;49.994;21.992;2022-08-19T00:48:53;98940.56;;;18.51;77.34
50710;BME280;37033;49.994;21.992;2022-08-19T00:51:47;98939.20;;;18.51;77.42
50710;BME280;37033;49.994;21.992;2022-08-19T00:54:38;98940.01;;;18.51;77.53
50710;BME280;37033;49.994;21.992;2022-08-19T00:57:32;98940.25;;;18.51;77.57
50710;BME280;37033;49.994;21.992;2022-08-19T01:00:26;98948.60;;;18.52;77.56
50710;BME280;37033;49.994;21.992;2022-08-19T01:03:21;98946.45;;;18.51;77.78
50710;BME280;37033;49.994;21.992;2022-08-19T01:06:12;98945.70;;;18.51;77.76
50710;BME280;37033;49.994;21.992;2022-08-19T01:09:04;98948.25;;;18.50;77.83
50710;BME280;37033;49.994;21.992;2022-08-19T01:11:54;98940.41;;;18.48;77.84
50710;BME280;37033;49.994;21.992;2022-08-19T01:14:46;98933.20;;;18.45;77.83
50710;BME280;37033;49.994;21.992;2022-08-19T01:17:39;98941.96;;;18.45;77.88
50710;BME280;37033;49.994;21.992;2022-08-19T01:20:30;98943.80;;;18.41;77.91
50710;BME280;37033;49.994;21.992;2022-08-19T01:23:22;98944.85;;;18.37;78.04
50710;BME280;37033;49.994;21.992;2022-08-19T01:26:31;98946.09;;;18.35;78.19
50710;BME280;37033;49.994;21.992;2022-08-19T01:29:21;98944.64;;;18.33;78.08
50710;BME280;37033;49.994;21.992;2022-08-19T01:32:14;98944.30;;;18.32;78.03
50710;BME280;37033;49.994;21.992;2022-08-19T01:35:07;98944.01;;;18.29;78.15
50710;BME280;37033;49.994;21.992;2022-08-19T01:38:00;98946.48;;;18.26;78.30
50710;BME280;37033;49.994;21.992;2022-08-19T01:40:51;98945.34;;;18.23;78.31
50710;BME280;37033;49.994;21.992;2022-08-19T01:43:41;98946.71;;;18.20;78.26
50710;BME280;37033;49.994;21.992;2022-08-19T01:46:32;98945.93;;;18.17;78.57
50710;BME280;37033;49.994;21.992;2022-08-19T01:49:23;98947.15;;;18.13;78.60
50710;BME280;37033;49.994;21.992;2022-08-19T01:52:15;98942.61;;;18.10;78.67
50710;BME280;37033;49.994;21.992;2022-08-19T01:55:09;98937.30;;;18.08;78.75
50710;BME280;37033;49.994;21.992;2022-08-19T01:58:01;98937.04;;;18.06;78.99
50710;BME280;37033;49.994;21.992;2022-08-19T02:00:52;98932.95;;;18.04;78.87
50710;BME280;37033;49.994;21.992;2022-08-19T02:03:42;98932.98;;;18.04;79.07
50710;BME280;37033;49.994;21.992;2022-08-19T02:06:33;98930.09;;;18.01;79.08
50710;BME280;37033;49.994;21.992;2022-08-19T02:09:24;98933.27;;;18.01;79.19
50710;BME280;37033;49.994;21.992;2022-08-19T02:12:14;98927.89;;;17.99;79.13
50710;BME280;37033;49.994;21.992;2022-08-19T02:15:06;98928.73;;;17.97;79.32
50710;BME280;37033;49.994;21.992;2022-08-19T02:17:56;98924.35;;;17.93;79.50
50710;BME280;37033;49.994;21.992;2022-08-19T02:20:48;98918.82;;;17.91;79.63
50710;BME280;37033;49.994;21.992;2022-08-19T02:23:39;98921.17;;;17.90;79.78
50710;BME280;37033;49.994;21.992;2022-08-19T02:26:30;98923.80;;;17.89;80.00
50710;BME280;37033;49.994;21.992;2022-08-19T02:29:21;98925.39;;;17.88;80.12
50710;BME280;37033;49.994;21.992;2022-08-19T02:32:12;98923.23;;;17.87;80.43
50710;BME280;37033;49.994;21.992;2022-08-19T02:35:03;98921.46;;;17.88;80.60
50710;BME280;37033;49.994;21.992;2022-08-19T02:37:54;98919.13;;;17.89;80.88
50710;BME280;37033;49.994;21.992;2022-08-19T02:41:05;98921.83;;;17.90;81.26
50710;BME280;37033;49.994;21.992;2022-08-19T02:44:00;98930.54;;;17.91;81.37
50710;BME280;37033;49.994;21.992;2022-08-19T02:46:51;98929.80;;;17.92;81.74
50710;BME280;37033;49.994;21.992;2022-08-19T02:49:41;98925.55;;;17.93;81.88
50710;BME280;37033;49.994;21.992;2022-08-19T02:52:32;98923.77;;;17.94;82.03
50710;BME280;37033;49.994;21.992;2022-08-19T02:55:23;98911.90;;;17.94;81.81
50710;BME280;37033;49.994;21.992;2022-08-19T02:58:14;98911.61;;;17.94;81.82
50710;BME280;37033;49.994;21.992;2022-08-19T03:01:04;98914.96;;;17.95;81.95
50710;BME280;37033;49.994;21.992;2022-08-19T03:03:58;98912.87;;;17.95;82.12
50710;BME280;37033;49.994;21.992;2022-08-19T03:06:49;98915.55;;;17.96;82.07
50710;BME280;37033;49.994;21.992;2022-08-19T03:09:39;98911.98;;;17.95;82.28
50710;BME280;37033;49.994;21.992;2022-08-19T03:12:30;98905.66;;;17.96;82.34
50710;BME280;37033;49.994;21.992;2022-08-19T03:15:21;98909.15;;;17.98;82.59
50710;BME280;37033;49.994;21.992;2022-08-19T03:18:12;98910.16;;;18.00;82.50
50710;BME280;37033;49.994;21.992;2022-08-19T03:21:03;98912.66;;;17.99;82.40
50710;BME280;37033;49.994;21.992;2022-08-19T03:23:55;98912.77;;;17.98;82.18
50710;BME280;37033;49.994;21.992;2022-08-19T03:26:47;98909.10;;;17.97;82.17
50710;BME280;37033;49.994;21.992;2022-08-19T03:29:39;98908.10;;;17.95;82.07
50710;BME280;37033;49.994;21.992;2022-08-19T03:32:29;98901.80;;;17.93;82.03
50710;BME280;37033;49.994;21.992;2022-08-19T03:35:20;98903.27;;;17.91;82.02
50710;BME280;37033;49.994;21.992;2022-08-19T03:38:10;98907.48;;;17.89;82.08
50710;BME280;37033;49.994;21.992;2022-08-19T03:41:04;98911.66;;;17.89;82.21
50710;BME280;37033;49.994;21.992;2022-08-19T03:43:55;98916.89;;;17.88;82.41
50710;BME280;37033;49.994;21.992;2022-08-19T03:46:47;98925.17;;;17.90;82.84
50710;BME280;37033;49.994;21.992;2022-08-19T03:49:38;98927.08;;;17.91;82.83
50710;BME280;37033;49.994;21.992;2022-08-19T03:52:28;98927.88;;;17.93;83.26
50710;BME280;37033;49.994;21.992;2022-08-19T03:55:19;98927.20;;;17.93;83.57
50710;BME280;37033;49.994;21.992;2022-08-19T03:58:10;98926.60;;;17.95;83.84
50710;BME280;37033;49.994;21.992;2022-08-19T04:01:00;98929.41;;;17.98;83.71
50710;BME280;37033;49.994;21.992;2022-08-19T04:03:51;98930.79;;;18.00;83.74
50710;BME280;37033;49.994;21.992;2022-08-19T04:06:41;98932.34;;;18.02;83.56
50710;BME280;37033;49.994;21.992;2022-08-19T04:09:34;98932.14;;;18.04;83.63
50710;BME280;37033;49.994;21.992;2022-08-19T04:12:25;98937.09;;;18.07;83.72
50710;BME280;37033;49.994;21.992;2022-08-19T04:15:16;98938.52;;;18.10;83.72
50710;BME280;37033;49.994;21.992;2022-08-19T04:18:06;98936.92;;;18.13;83.80
50710;BME280;37033;49.994;21.992;2022-08-19T04:20:57;98938.44;;;18.18;84.04
50710;BME280;37033;49.994;21.992;2022-08-19T04:23:48;98943.91;;;18.22;84.09
50710;BME280;37033;49.994;21.992;2022-08-19T04:26:39;98950.40;;;18.29;84.25
50710;BME280;37033;49.994;21.992;2022-08-19T04:29:30;98955.90;;;18.35;84.09
50710;BME280;37033;49.994;21.992;2022-08-19T04:32:21;98961.72;;;18.42;84.26
50710;BME280;37033;49.994;21.992;2022-08-19T04:35:11;98968.61;;;18.50;84.37
50710;BME280;37033;49.994;21.992;2022-08-19T04:38:02;98968.14;;;18.58;84.48
50710;BME280;37033;49.994;21.992;2022-08-19T04:40:53;98963.59;;;18.65;84.62
50710;BME280;37033;49.994;21.992;2022-08-19T04:44:01;98960.61;;;18.73;84.43
50710;BME280;37033;49.994;21.992;2022-08-19T04:46:52;98963.27;;;18.82;84.29
50710;BME280;37033;49.994;21.992;2022-08-19T04:49:43;98961.11;;;18.91;84.21
50710;BME280;37033;49.994;21.992;2022-08-19T04:52:33;98960.86;;;19.01;84.31
50710;BME280;37033;49.994;21.992;2022-08-19T04:55:24;98959.38;;;19.11;84.07
50710;BME280;37033;49.994;21.992;2022-08-19T04:58:15;98964.26;;;19.23;84.05
50710;BME280;37033;49.994;21.992;2022-08-19T05:01:06;98963.30;;;19.35;83.97
50710;BME280;37033;49.994;21.992;2022-08-19T05:03:59;98966.36;;;19.47;83.91
50710;BME280;37033;49.994;21.992;2022-08-19T05:06:50;98971.58;;;19.59;83.67
50710;BME280;37033;49.994;21.992;2022-08-19T05:09:42;98979.65;;;19.71;83.42
50710;BME280;37033;49.994;21.992;2022-08-19T05:12:32;98985.42;;;19.82;83.17
50710;BME280;37033;49.994;21.992;2022-08-19T05:15:23;98993.14;;;19.93;83.05
50710;BME280;37033;49.994;21.992;2022-08-19T05:18:13;98988.16;;;20.05;83.01
50710;BME280;37033;49.994;21.992;2022-08-19T05:21:23;98986.86;;;20.20;82.54
50710;BME280;37033;49.994;21.992;2022-08-19T05:24:31;98986.02;;;20.33;82.18
50710;BME280;37033;49.994;21.992;2022-08-19T05:27:22;98976.16;;;20.45;81.98
50710;BME280;37033;49.994;21.992;2022-08-19T05:30:14;98970.35;;;20.58;81.46
50710;BME280;37033;49.994;21.992;2022-08-19T05:33:04;98963.77;;;20.71;81.13
50710;BME280;37033;49.994;21.992;2022-08-19T05:35:54;98962.31;;;20.84;80.68
50710;BME280;37033;49.994;21.992;2022-08-19T05:38:45;98963.79;;;20.98;80.26
50710;BME280;37033;49.994;21.992;2022-08-19T05:41:37;98962.96;;;21.12;80.02
50710;BME280;37033;49.994;21.992;2022-08-19T05:44:32;98965.64;;;21.28;79.82
50710;BME280;37033;49.994;21.992;2022-08-19T05:47:23;98967.30;;;21.43;79.06
50710;BME280;37033;49.994;21.992;2022-08-19T05:50:13;98963.19;;;21.57;78.44
50710;BME280;37033;49.994;21.992;2022-08-19T05:53:06;98953.13;;;21.69;77.82
50710;BME280;37033;49.994;21.992;2022-08-19T05:55:57;98947.65;;;21.81;77.67
50710;BME280;37033;49.994;21.992;2022-08-19T05:58:48;98951.24;;;21.92;77.25
50710;BME280;37033;49.994;21.992;2022-08-19T06:01:40;98946.31;;;22.04;77.17
50710;BME280;37033;49.994;21.992;2022-08-19T06:04:31;98950.13;;;22.19;77.28
50710;BME280;37033;49.994;21.992;2022-08-19T06:07:22;98949.23;;;22.37;77.17
50710;BME280;37033;49.994;21.992;2022-08-19T06:10:13;98950.50;;;22.54;76.48
50710;BME280;37033;49.994;21.992;2022-08-19T06:13:03;98951.60;;;22.71;76.19
50710;BME280;37033;49.994;21.992;2022-08-19T06:15:54;98957.71;;;22.88;75.78
50710;BME280;37033;49.994;21.992;2022-08-19T06:18:44;98961.08;;;23.04;74.84
50710;BME280;37033;49.994;21.992;2022-08-19T06:21:35;98966.17;;;23.20;74.76
50710;BME280;37033;49.994;21.992;2022-08-19T06:24:28;98968.48;;;23.36;74.32
50710;BME280;37033;49.994;21.992;2022-08-19T06:27:18;98971.56;;;23.53;73.81
50710;BME280;37033;49.994;21.992;2022-08-19T06:30:11;98970.84;;;23.65;73.19
50710;BME280;37033;49.994;21.992;2022-08-19T06:33:02;98970.72;;;23.76;72.72
50710;BME280;37033;49.994;21.992;2022-08-19T06:35:52;98964.59;;;23.88;72.25
50710;BME280;37033;49.994;21.992;2022-08-19T06:38:43;98960.45;;;23.99;72.23
50710;BME280;37033;49.994;21.992;2022-08-19T06:41:36;98953.59;;;24.11;71.32
50710;BME280;37033;49.994;21.992;2022-08-19T06:44:29;98955.31;;;24.19;69.92
50710;BME280;37033;49.994;21.992;2022-08-19T06:47:23;98954.90;;;24.26;69.27
50710;BME280;37033;49.994;21.992;2022-08-19T06:50:13;98950.89;;;24.36;69.37
50710;BME280;37033;49.994;21.992;2022-08-19T06:53:04;98950.86;;;24.49;68.92
50710;BME280;37033;49.994;21.992;2022-08-19T06:55:54;98949.42;;;24.59;68.28
50710;BME280;37033;49.994;21.992;2022-08-19T06:58:48;98953.23;;;24.72;67.88
50710;BME280;37033;49.994;21.992;2022-08-19T07:01:42;98961.55;;;24.86;67.77
50710;BME280;37033;49.994;21.992;2022-08-19T07:04:35;98953.91;;;25.00;66.69
50710;BME280;37033;49.994;21.992;2022-08-19T07:07:27;98952.27;;;25.11;66.58
50710;BME280;37033;49.994;21.992;2022-08-19T07:10:17;98946.85;;;25.26;66.43
50710;BME280;37033;49.994;21.992;2022-08-19T07:13:08;98937.27;;;25.40;66.21
50710;BME280;37033;49.994;21.992;2022-08-19T07:15:58;98941.01;;;25.56;65.87
50710;BME280;37033;49.994;21.992;2022-08-19T07:18:52;98939.79;;;25.68;64.86
50710;BME280;37033;49.994;21.992;2022-08-19T07:21:43;98939.23;;;25.80;64.80
50710;BME280;37033;49.994;21.992;2022-08-19T07:24:34;98946.89;;;25.93;64.63
50710;BME280;37033;49.994;21.992;2022-08-19T07:27:24;98955.52;;;26.04;64.05
50710;BME280;37033;49.994;21.992;2022-08-19T07:30:14;98955.55;;;26.17;64.01
50710;BME280;37033;49.994;21.992;2022-08-19T07:33:04;98962.40;;;26.35;64.26
50710;BME280;37033;49.994;21.992;2022-08-19T07:35:55;98955.59;;;26.51;63.54
50710;BME280;37033;49.994;21.992;2022-08-19T07:38:48;98954.84;;;26.65;63.10
50710;BME280;37033;49.994;21.992;2022-08-19T07:41:38;98955.80;;;26.77;62.56
50710;BME280;37033;49.994;21.992;2022-08-19T07:44:29;98959.92;;;26.90;62.40
50710;BME280;37033;49.994;21.992;2022-08-19T07:47:19;98962.85;;;27.05;62.00
50710;BME280;37033;49.994;21.992;2022-08-19T07:50:11;98965.89;;;27.20;60.98
50710;BME280;37033;49.994;21.992;2022-08-19T07:53:02;98966.84;;;27.32;60.40
50710;BME280;37033;49.994;21.992;2022-08-19T07:55:53;98973.77;;;27.44;60.00
50710;BME280;37033;49.994;21.992;2022-08-19T07:58:45;98972.66;;;27.58;59.27
50710;BME280;37033;49.994;21.992;2022-08-19T08:01:36;98975.26;;;27.71;58.40
50710;BME280;37033;49.994;21.992;2022-08-19T08:04:26;98972.14;;;27.86;57.99
50710;BME280;37033;49.994;21.992;2022-08-19T08:07:34;98973.21;;;27.98;56.97
50710;BME280;37033;49.994;21.992;2022-08-19T08:10:42;98977.77;;;28.11;57.31
50710;BME280;37033;49.994;21.992;2022-08-19T08:13:32;98977.45;;;28.23;57.31
50710;BME280;37033;49.994;21.992;2022-08-19T08:16:24;98976.20;;;28.38;56.70
50710;BME280;37033;49.994;21.992;2022-08-19T08:19:20;98976.29;;;28.51;54.86
50710;BME280;37033;49.994;21.992;2022-08-19T08:22:12;98982.91;;;28.63;54.05
50710;BME280;37033;49.994;21.992;2022-08-19T08:25:26;98995.91;;;28.75;53.76
50710;BME280;37033;49.994;21.992;2022-08-19T08:28:17;98990.85;;;28.88;53.53
50710;BME280;37033;49.994;21.992;2022-08-19T08:31:08;98989.34;;;28.99;52.42
50710;BME280;37033;49.994;21.992;2022-08-19T08:33:59;98995.09;;;29.08;52.06
50710;BME280;37033;49.994;21.992;2022-08-19T08:36:49;98993.36;;;29.18;51.36
50710;BME280;37033;49.994;21.992;2022-08-19T08:39:41;98991.93;;;29.24;50.81
50710;BME280;37033;49.994;21.992;2022-08-19T08:42:34;98988.38;;;29.27;50.22
50710;BME280;37033;49.994;21.992;2022-08-19T08:45:28;98989.86;;;29.36;50.90
50710;BME280;37033;49.994;21.992;2022-08-19T08:48:22;98988.20;;;29.48;51.37
50710;BME280;37033;49.994;21.992;2022-08-19T08:51:18;98987.57;;;29.60;51.59
50710;BME280;37033;49.994;21.992;2022-08-19T08:54:14;98985.98;;;29.73;51.60
50710;BME280;37033;49.994;21.992;2022-08-19T08:57:09;98989.91;;;29.85;51.37
50710;BME280;37033;49.994;21.992;2022-08-19T09:00:04;98988.49;;;29.99;50.94
50710;BME280;37033;49.994;21.992;2022-08-19T09:02:56;98994.69;;;30.09;50.24
50710;BME280;37033;49.994;21.992;2022-08-19T09:05:55;98992.95;;;30.19;50.74
50710;BME280;37033;49.994;21.992;2022-08-19T09:08:52;98993.90;;;30.30;50.85
50710;BME280;37033;49.994;21.992;2022-08-19T09:11:59;98996.38;;;30.43;50.20
50710;BME280;37033;49.994;21.992;2022-08-19T09:14:55;98992.17;;;30.57;49.97
50710;BME280;37033;49.994;21.992;2022-08-19T09:17:47;98989.77;;;30.65;48.81
50710;BME280;37033;49.994;21.992;2022-08-19T09:20:37;98987.83;;;30.63;49.25
50710;BME280;37033;49.994;21.992;2022-08-19T09:23:28;98993.68;;;30.81;49.30
50710;BME280;37033;49.994;21.992;2022-08-19T09:26:20;98986.17;;;31.01;49.34
50710;BME280;37033;49.994;21.992;2022-08-19T09:29:11;98984.42;;;31.12;47.52
50710;BME280;37033;49.994;21.992;2022-08-19T09:32:02;98983.63;;;31.13;46.96
50710;BME280;37033;49.994;21.992;2022-08-19T09:34:52;98987.84;;;31.20;47.09
50710;BME280;37033;49.994;21.992;2022-08-19T09:37:43;98986.14;;;31.28;46.38
50710;BME280;37033;49.994;21.992;2022-08-19T09:40:33;98986.33;;;31.34;46.00
50710;BME280;37033;49.994;21.992;2022-08-19T09:43:24;98984.06;;;31.43;46.05
50710;BME280;37033;49.994;21.992;2022-08-19T09:46:14;98980.92;;;31.49;45.15
50710;BME280;37033;49.994;21.992;2022-08-19T09:49:06;98979.97;;;31.52;44.74
50710;BME280;37033;49.994;21.992;2022-08-19T09:51:56;98978.84;;;31.51;43.52
50710;BME280;37033;49.994;21.992;2022-08-19T09:54:47;98982.46;;;31.52;44.21
50710;BME280;37033;49.994;21.992;2022-08-19T09:57:39;98985.45;;;31.57;43.18
50710;BME280;37033;49.994;21.992;2022-08-19T10:00:30;98981.83;;;31.54;43.81
50710;BME280;37033;49.994;21.992;2022-08-19T10:03:21;98979.77;;;31.58;42.65
50710;BME280;37033;49.994;21.992;2022-08-19T10:06:12;98984.34;;;31.59;42.60
50710;BME280;37033;49.994;21.992;2022-08-19T10:09:02;98983.57;;;31.65;42.76
50710;BME280;37033;49.994;21.992;2022-08-19T10:11:53;98982.02;;;31.73;42.21
50710;BME280;37033;49.994;21.992;2022-08-19T10:14:43;98974.59;;;31.86;42.69
50710;BME280;37033;49.994;21.992;2022-08-19T10:17:34;98972.80;;;31.99;42.07
50710;BME280;37033;49.994;21.992;2022-08-19T10:20:26;98974.86;;;32.05;41.38
50710;BME280;37033;49.994;21.992;2022-08-19T10:23:19;98968.67;;;32.06;41.47
50710;BME280;37033;49.994;21.992;2022-08-19T10:26:10;98964.44;;;32.13;41.42
50710;BME280;37033;49.994;21.992;2022-08-19T10:29:01;98955.77;;;32.20;40.64
50710;BME280;37033;49.994;21.992;2022-08-19T10:31:53;98953.14;;;32.25;40.64
50710;BME280;37033;49.994;21.992;2022-08-19T10:34:45;98950.81;;;32.31;40.37
50710;BME280;37033;49.994;21.992;2022-08-19T10:37:35;98947.27;;;32.29;40.67
50710;BME280;37033;49.994;21.992;2022-08-19T10:40:28;98954.28;;;32.35;40.84
50710;BME280;37033;49.994;21.992;2022-08-19T10:43:18;98951.64;;;32.45;40.14
50710;BME280;37033;49.994;21.992;2022-08-19T10:46:10;98950.14;;;32.59;40.13
50710;BME280;37033;49.994;21.992;2022-08-19T10:49:03;98950.32;;;32.70;40.02
50710;BME280;37033;49.994;21.992;2022-08-19T10:51:53;98952.09;;;32.83;40.59
50710;BME280;37033;49.994;21.992;2022-08-19T10:55:02;98947.98;;;32.97;39.95
50710;BME280;37033;49.994;21.992;2022-08-19T10:58:14;98949.98;;;32.98;39.42
50710;BME280;37033;49.994;21.992;2022-08-19T11:01:05;98951.18;;;33.02;39.32
50710;BME280;37033;49.994;21.992;2022-08-19T11:03:56;98948.78;;;33.09;38.39
50710;BME280;37033;49.994;21.992;2022-08-19T11:06:48;98949.11;;;33.16;38.36
50710;BME280;37033;49.994;21.992;2022-08-19T11:09:40;98952.15;;;33.21;38.53
50710;BME280;37033;49.994;21.992;2022-08-19T11:12:31;98947.37;;;33.36;38.61
50710;BME280;37033;49.994;21.992;2022-08-19T11:15:21;98941.36;;;33.53;38.00
50710;BME280;37033;49.994;21.992;2022-08-19T11:18:14;98938.38;;;33.56;37.39
50710;BME280;37033;49.994;21.992;2022-08-19T11:21:14;98941.75;;;33.63;37.74
50710;BME280;37033;49.994;21.992;2022-08-19T11:24:11;98936.12;;;33.82;38.00
50710;BME280;37033;49.994;21.992;2022-08-19T11:27:07;98938.46;;;33.99;37.43
50710;BME280;37033;49.994;21.992;2022-08-19T11:29:57;98935.46;;;34.03;37.07
50710;BME280;37033;49.994;21.992;2022-08-19T11:32:48;98927.84;;;34.10;37.54
50710;BME280;37033;49.994;21.992;2022-08-19T11:35:41;98929.11;;;34.15;36.62
50710;BME280;37033;49.994;21.992;2022-08-19T11:38:32;98921.45;;;34.17;36.77
50710;BME280;37033;49.994;21.992;2022-08-19T11:41:23;98921.96;;;34.25;37.14
50710;BME280;37033;49.994;21.992;2022-08-19T11:44:14;98917.47;;;34.35;36.45
50710;BME280;37033;49.994;21.992;2022-08-19T11:47:05;98916.61;;;34.41;36.54
50710;BME280;37033;49.994;21.992;2022-08-19T11:49:56;98918.16;;;34.51;36.35
50710;BME280;37033;49.994;21.992;2022-08-19T11:52:46;98914.05;;;34.61;36.03
50710;BME280;37033;49.994;21.992;2022-08-19T11:55:39;98908.30;;;34.74;36.23
50710;BME280;37033;49.994;21.992;2022-08-19T11:58:31;98908.05;;;34.86;36.42
50710;BME280;37033;49.994;21.992;2022-08-19T12:01:23;98900.23;;;34.92;36.46
50710;BME280;37033;49.994;21.992;2022-08-19T12:04:14;98900.58;;;35.00;35.78
50710;BME280;37033;49.994;21.992;2022-08-19T12:07:05;98895.81;;;34.91;35.18
50710;BME280;37033;49.994;21.992;2022-08-19T12:09:55;98895.33;;;34.82;33.19
50710;BME280;37033;49.994;21.992;2022-08-19T12:12:45;98888.11;;;34.79;33.30
50710;BME280;37033;49.994;21.992;2022-08-19T12:15:38;98882.01;;;34.84;33.15
50710;BME280;37033;49.994;21.992;2022-08-19T12:18:29;98882.56;;;34.83;33.22
50710;BME280;37033;49.994;21.992;2022-08-19T12:21:22;98885.02;;;34.81;33.78
50710;BME280;37033;49.994;21.992;2022-08-19T12:24:14;98881.63;;;34.96;33.58
50710;BME280;37033;49.994;21.992;2022-08-19T12:27:09;98885.52;;;35.10;32.51
50710;BME280;37033;49.994;21.992;2022-08-19T12:30:00;98879.58;;;35.09;33.11
50710;BME280;37033;49.994;21.992;2022-08-19T12:32:51;98879.66;;;35.24;32.08
50710;BME280;37033;49.994;21.992;2022-08-19T12:35:42;98874.75;;;35.24;32.14
50710;BME280;37033;49.994;21.992;2022-08-19T12:38:35;98870.58;;;35.21;32.04
50710;BME280;37033;49.994;21.992;2022-08-19T12:41:25;98868.75;;;35.17;32.40
50710;BME280;37033;49.994;21.992;2022-08-19T12:44:17;98869.13;;;35.22;32.05
50710;BME280;37033;49.994;21.992;2022-08-19T12:47:09;98870.69;;;35.17;31.93
50710;BME280;37033;49.994;21.992;2022-08-19T12:50:00;98868.29;;;35.15;32.41
50710;BME280;37033;49.994;21.992;2022-08-19T12:52:50;98867.77;;;35.20;33.50
50710;BME280;37033;49.994;21.992;2022-08-19T12:55:41;98868.61;;;35.37;32.90
50710;BME280;37033;49.994;21.992;2022-08-19T12:58:32;98864.02;;;35.37;32.97
50710;BME280;37033;49.994;21.992;2022-08-19T13:01:23;98865.09;;;35.28;32.63
50710;BME280;37033;49.994;21.992;2022-08-19T13:04:14;98861.81;;;35.18;32.61
50710;BME280;37033;49.994;21.992;2022-08-19T13:07:05;98859.14;;;35.08;32.89
50710;BME280;37033;49.994;21.992;2022-08-19T13:09:55;98851.01;;;35.07;32.67
50710;BME280;37033;49.994;21.992;2022-08-19T13:12:48;98852.84;;;35.03;32.71
50710;BME280;37033;49.994;21.992;2022-08-19T13:15:40;98847.65;;;34.98;32.98
50710;BME280;37033;49.994;21.992;2022-08-19T13:18:31;98846.61;;;34.97;33.30
50710;BME280;37033;49.994;21.992;2022-08-19T13:21:23;98850.89;;;35.03;33.13
50710;BME280;37033;49.994;21.992;2022-08-19T13:24:14;98853.84;;;34.99;33.20
50710;BME280;37033;49.994;21.992;2022-08-19T13:27:05;98846.23;;;35.02;33.42
50710;BME280;37033;49.994;21.992;2022-08-19T13:29:56;98847.30;;;35.15;32.96
50710;BME280;37033;49.994;21.992;2022-08-19T13:33:04;98845.02;;;35.20;32.70
50710;BME280;37033;49.994;21.992;2022-08-19T13:36:02;98842.41;;;35.28;32.62
50710;BME280;37033;49.994;21.992;2022-08-19T13:38:56;98839.21;;;35.31;32.33
50710;BME280;37033;49.994;21.992;2022-08-19T13:41:47;98840.49;;;35.26;32.51
50710;BME280;37033;49.994;21.992;2022-08-19T13:44:38;98846.98;;;35.30;32.29
50710;BME280;37033;49.994;21.992;2022-08-19T13:47:28;98849.16;;;35.14;32.27
50710;BME280;37033;49.994;21.992;2022-08-19T13:50:24;98853.03;;;35.15;32.04
50710;BME280;37033;49.994;21.992;2022-08-19T13:53:15;98854.55;;;35.09;32.39
50710;BME280;37033;49.994;21.992;2022-08-19T13:56:09;98860.21;;;35.16;32.03
50710;BME280;37033;49.994;21.992;2022-08-19T13:59:01;98857.48;;;35.06;31.88
50710;BME280;37033;49.994;21.992;2022-08-19T14:01:52;98859.28;;;35.04;32.22
50710;BME280;37033;49.994;21.992;2022-08-19T14:04:42;98863.73;;;35.04;32.65
50710;BME280;37033;49.994;21.992;2022-08-19T14:07:32;98864.95;;;35.02;32.96
50710;BME280;37033;49.994;21.992;2022-08-19T14:10:23;98865.75;;;35.02;33.08
50710;BME280;37033;49.994;21.992;2022-08-19T14:13:18;98865.54;;;35.00;33.14
50710;BME280;37033;49.994;21.992;2022-08-19T14:16:11;98859.64;;;34.93;33.44
50710;BME280;37033;49.994;21.992;2022-08-19T14:19:01;98855.58;;;34.89;33.45
50710;BME280;37033;49.994;21.992;2022-08-19T14:21:53;98854.80;;;34.93;33.78
50710;BME280;37033;49.994;21.992;2022-08-19T14:24:45;98855.27;;;35.01;33.54
50710;BME280;37033;49.994;21.992;2022-08-19T14:27:38;98854.05;;;34.95;33.48
50710;BME280;37033;49.994;21.992;2022-08-19T14:30:31;98850.38;;;34.93;33.46
50710;BME280;37033;49.994;21.992;2022-08-19T14:33:22;98843.80;;;34.94;33.29
50710;BME280;37033;49.994;21.992;2022-08-19T14:36:13;98842.09;;;34.82;33.24
50710;BME280;37033;49.994;21.992;2022-08-19T14:39:04;98835.58;;;34.79;33.48
50710;BME280;37033;49.994;21.992;2022-08-19T14:41:54;98832.06;;;34.67;33.52
50710;BME280;37033;49.994;21.992;2022-08-19T14:44:45;98830.80;;;34.62;33.80
50710;BME280;37033;49.994;21.992;2022-08-19T14:47:35;98832.70;;;34.56;33.88
50710;BME280;37033;49.994;21.992;2022-08-19T14:50:28;98830.55;;;34.53;34.11
50710;BME280;37033;49.994;21.992;2022-08-19T14:53:18;98832.30;;;34.48;34.07
50710;BME280;37033;49.994;21.992;2022-08-19T14:56:14;98830.13;;;34.48;34.70
50710;BME280;37033;49.994;21.992;2022-08-19T14:59:05;98829.71;;;34.49;34.67